Tiempo atmosférico en la estación meteorológica de Santibañez De Vidriales, Zamora (737 m.)



Fecha
DESCASC
Temp. máxima en grados centígrados (hora)
DESCASC
Temp. mínima en grados centígrados (hora)
DESCASC
Temp. media en grados centígrados
DESCASC
Racha de viento máxima en m/sg (hora)
DESCASC
Velocidad máxima media en intervalos de 10 minutos(hora)
DESCASC
Precipitaciones diarias en mm
DESCASC
Precipitaciones de 00:00 a 06:00 en mm
DESCASC
Precipitaciones de 06:00 a 12:00 en mm
DESCASC
Precipitaciones de 12:00 a 18:00 en mm
DESCASC
Precipitaciones de 18:00 a 24:00 en mm
DESCASC
17-09-2020 -- (--) -- (--) -- -- (--) -- (--) -- 0 2.2 0 --
15-09-2020 27.4 (17:30) 13.5 (04:00) 20.4 8.61 (15:50) 5.28 (16:00) 0 0 0 0 0
14-09-2020 28.3 (16:20) 12.8 (07:30) 20.5 8.89 (16:10) 5.83 (16:10) 0.8 0 0 0.8 0
13-09-2020 32 (16:40) 13.3 (00:00) 22.7 6.39 (18:30) 3.61 (19:40) 0 0 0 0 0
12-09-2020 30.6 (17:40) 12.3 (08:10) 21.5 6.67 (17:10) 3.89 (19:00) 0 0 0 0 0
11-09-2020 29.8 (17:50) 11.1 (00:00) 20.4 7.78 (12:50) 3.06 (19:20) 0 0 0 0 0
10-09-2020 29 (17:50) 10.1 (00:00) 19.6 6.11 (18:30) 3.33 (19:30) 0 0 0 0 0
09-09-2020 28.4 (17:30) 9.2 (07:50) 18.8 5 (16:40) 3.06 (01:20) 0 0 0 0 0
08-09-2020 24.9 (17:50) 8.6 (00:00) 16.8 8.61 (15:00) 5.28 (16:10) 0 0 0 0 0
07-09-2020 23.4 (17:30) 6.8 (07:30) 15.1 9.17 (16:50) 5 (15:50) 0 0 0 0 0
06-09-2020 27.8 (18:10) 11.4 (00:00) 19.6 10 (21:50) 6.94 (21:20) 0 0 0 0 0
05-09-2020 31.2 (17:30) 11.5 (00:00) 21.4 10 (21:00) 5.28 (21:00) 0 0 0 0 0
04-09-2020 32.2 (17:00) 9.6 (00:00) 20.9 8.33 (16:10) 4.44 (16:10) 0 0 0 0 0
03-09-2020 29.9 (18:50) 9.1 (00:00) 19.5 5.83 (19:50) 3.33 (19:50) 0 0 0 0 0
02-09-2020 26.6 (18:50) 8.4 (00:00) 17.5 6.11 (13:30) 3.61 (12:30) 0 0 0 0 0
01-09-2020 26 (17:30) 11.2 (00:00) 18.6 8.61 (22:50) 5.56 (22:50) 0 0 0 0 0
31-08-2020 24.3 (18:50) 5.3 (00:00) 14.8 7.5 (18:20) 3.89 (18:20) 0 0 0 0 0
30-08-2020 19.9 (18:00) 4.2 (00:00) 12 8.33 (15:50) 4.17 (15:50) 0 0 0 0 0
29-08-2020 20.1 (17:10) 6.6 (00:00) 13.4 12.5 (18:00) 8.33 (18:10) 0 0 0 0 0
28-08-2020 24.4 (15:00) 12.1 (00:00) 18.3 14.17 (19:30) 9.17 (18:50) 0 0 0 0 0
27-08-2020 32.5 (17:00) 13.5 (00:00) 23 10.56 (16:50) 5.83 (20:00) 0 0 0 0 0
26-08-2020 32.8 (18:40) 12.3 (00:00) 22.5 6.94 (16:10) 4.72 (19:40) 0 0 0 0 0
25-08-2020 32.5 (17:50) 10.5 (00:00) 21.5 8.33 (19:30) 6.39 (19:30) 0 0 0 0 0
24-08-2020 28.7 (18:30) 10.8 (07:40) 19.8 5.83 (12:00) 3.61 (19:10) 0 0 0 0 0
23-08-2020 27.4 (18:30) 10.7 (00:00) 19 5.56 (18:40) 3.06 (23:00) 0 0 0 0 0
22-08-2020 27.6 (18:40) 8 (00:00) 17.8 5.28 (16:50) 3.06 (18:50) 0 0 0 0 0
21-08-2020 24.9 (16:20) 13.7 (07:40) 19.3 10.83 (18:40) 6.67 (16:40) 0.2 0 0.2 0 0

Gráficas

Temp. máximas Temp. mínimas Temp. medias Precipitaciones Rachas de viento máximas Velocidades máximas media en intervalos de 10 minutos

Datos horarios

Fecha y hora oficial Temperatura (ºC) Velocidad del viento (km/h) Dirección del viento Racha (km/h) Dirección de racha Precipitación (mm) Presión (hPa) Tendencia (hPa) Humedad (%)
2020-09-19 23:00:00 14.3 6 Sudoeste 13 Sudoeste 0 -- -- 87
2020-09-19 22:00:00 14.5 12 Sudoeste 22 Sudoeste 0 -- -- 84
2020-09-19 21:00:00 15.7 16 Sudoeste 31 Sudoeste 0 -- -- 78
2020-09-19 20:00:00 17.1 18 Sudoeste 32 Sudoeste 0 -- -- 68
2020-09-19 19:00:00 18.3 12 Oeste 23 Oeste 0 -- -- 70
2020-09-19 18:00:00 16.6 13 Oeste 31 Sudoeste 0.6 -- -- 81
2020-09-19 17:00:00 17.9 21 Oeste 40 Sudoeste 0.2 -- -- 74
2020-09-19 16:00:00 19.9 27 Sudoeste 39 Sudoeste 0 -- -- 61
2020-09-19 15:00:00 17.9 17 Oeste 33 Sudoeste 0 -- -- 68
2020-09-19 14:00:00 18.5 19 Sudoeste 32 Sudoeste 0 -- -- 68
2020-09-19 13:00:00 16.8 12 Sudoeste 21 Sudoeste 0 -- -- 80
2020-09-19 12:00:00 15.9 8 Sudoeste 16 Sudoeste 0 -- -- 85
2020-09-19 11:00:00 14.3 4 Oeste 8 Oeste 0 -- -- 89
2020-09-19 10:00:00 13.7 4 Noroeste 11 Norte 0 -- -- 90
2020-09-19 09:00:00 13 5 Oeste 12 Norte 0.6 -- -- 94
2020-09-19 08:00:00 13.1 7 Norte 15 Norte 0 -- -- 93
2020-09-19 07:00:00 13.1 9 Norte 14 Norte 0 -- -- 93
2020-09-19 06:00:00 13.1 7 Nordeste 13 Norte 0 -- -- 92
2020-09-19 05:00:00 13.1 4 Nordeste 8 Nordeste 0 -- -- 91
2020-09-19 04:00:00 13.3 6 Nordeste 10 Nordeste 0 -- -- 91
2020-09-19 03:00:00 12.6 4 Nordeste 8 Nordeste 0 -- -- 91
2020-09-19 02:00:00 12.2 4 Nordeste 6 Nordeste 0 -- -- 91
2020-09-19 01:00:00 12.9 2 Norte 9 Este 0 -- -- 89
2020-09-19 00:00:00 13.5 5 Este 9 Este 0.2 -- -- 87
2020-09-18 23:00:00 14.2 3 Nordeste 8 Nordeste 0 -- -- 92
2020-09-18 22:00:00 14.4 3 Norte 11 Este 0 -- -- 90
2020-09-18 21:00:00 14.8 8 Este 20 Este 0 -- -- 88
2020-09-18 20:00:00 15.3 9 Sudoeste 46 Sur 0.2 -- -- 83
2020-09-18 19:00:00 16 10 Noroeste 44 Sudoeste 2.4 -- -- 80
2020-09-18 18:00:00 21.5 11 Sur 20 Sudeste 0 -- -- 42
2020-09-18 17:00:00 22.2 8 Sudeste 27 Sudoeste 0 -- -- 40
2020-09-18 16:00:00 22.6 11 Sudoeste 25 Sur 0 -- -- 41
2020-09-18 15:00:00 21.8 10 Sudoeste 24 Oeste 0 -- -- 47
2020-09-18 14:00:00 20.5 14 Sudoeste 26 Sudoeste 0 -- -- 50
2020-09-18 13:00:00 20.5 15 Sudoeste 28 Sudoeste 0 -- -- 54
2020-09-18 12:00:00 18 15 Sudoeste 28 Sudoeste 0 -- -- 65
2020-09-18 11:00:00 17.3 16 Sudoeste 25 Sur 0 -- -- 74
2020-09-18 10:00:00 15.5 14 Sudoeste 19 Sudoeste 0 -- -- 87
2020-09-18 09:00:00 14 0 Calma 4 Norte 0 -- -- 92
2020-09-18 08:00:00 14.3 0 Calma 8 Sur 0 -- -- 93
2020-09-18 07:00:00 14.3 4 Sudeste 5 Sudeste 0 -- -- 93
2020-09-18 06:00:00 14.2 2 Nordeste 5 Norte 0 -- -- 93
2020-09-18 05:00:00 14.5 0 Calma 5 Norte 0 -- -- 91
2020-09-18 04:00:00 14.7 5 Noroeste 17 Sudeste 0 -- -- 90
2020-09-18 03:00:00 15.2 6 Este 10 Este 0 -- -- 90
2020-09-18 02:00:00 15.6 6 Sudoeste 15 Este 0 -- -- 90
2020-09-18 01:00:00 15.7 8 Nordeste 13 Este 0.2 -- -- 90
2020-09-18 00:00:00 15.9 8 Sudoeste 12 Sudoeste 0 -- -- 87
2020-09-17 23:00:00 16.6 2 Este 9 Sudoeste 0 -- -- 84
2020-09-17 22:00:00 17.5 0 Calma 7 Oeste 0 -- -- 78
2020-09-17 21:00:00 18.9 2 Sur 17 Oeste 0 -- -- 70
2020-09-17 20:00:00 20.6 15 Oeste 26 Oeste 0 -- -- 63
2020-09-17 19:00:00 22.2 9 Sudeste 42 Este 0.4 -- -- 62
2020-09-17 18:00:00 25.8 18 Este 37 Sudeste 0 -- -- 41
2020-09-17 17:00:00 26.5 15 Sudeste 28 Sudeste 0 -- -- 40
2020-09-17 16:00:00 24.7 14 Este 25 Este 0 -- -- 45
2020-09-17 15:00:00 24.7 8 Sudeste 21 Sudeste 0 -- -- 47
2020-09-17 14:00:00 23.7 8 Este 20 Sudeste 0 -- -- 50
2020-09-17 13:00:00 22 10 Sudeste 22 Sudeste 0 -- -- 64
2020-09-17 12:00:00 19.8 11 Este 18 Este 0 -- -- 71
2020-09-17 11:00:00 17.3 5 Nordeste 15 Nordeste 0.4 -- -- 86
2020-09-17 10:00:00 16.1 5 Nordeste 14 Norte 1.4 -- -- 87
2020-09-17 09:00:00 16.4 8 Norte 15 Norte 0.4 -- -- 81
2020-09-17 08:00:00 17.3 5 Norte 12 Este 0 -- -- 70
2020-09-17 07:00:00 18.2 5 Sudeste 32 Este 0 -- -- 64
2020-09-17 06:00:00 18.8 14 Sudeste 26 Sudeste 0 -- -- 58
2020-09-17 05:00:00 19.2 12 Este 19 Este 0 -- -- 52
2020-09-17 04:00:00 18.5 2 Nordeste 9 Nordeste 0 -- -- 62
2020-09-17 03:00:00 19.2 4 Nordeste 8 Nordeste 0 -- -- 59
2020-09-17 02:00:00 19.8 6 Norte 12 Nordeste 0 -- -- 55
2020-09-17 01:00:00 20.1 9 Nordeste 15 Norte 0 -- -- 51
2020-09-17 00:00:00 20.5 9 Norte 20 Norte 0 -- -- 48
2020-09-16 23:00:00 21.3 12 Nordeste 19 Norte 0 -- -- 46
2020-09-16 22:00:00 21.9 11 Nordeste 16 Nordeste 0 -- -- 45
2020-09-16 21:00:00 22.6 9 Norte 16 Norte 0 -- -- 43
2020-09-16 20:00:00 24.2 8 Norte 13 Nordeste 0 -- -- 39
2020-09-16 19:00:00 25.8 6 Nordeste 13 Nordeste 0 -- -- 35
2020-09-16 18:00:00 26.4 7 Este 16 Este 0 -- -- 32
2020-09-16 17:00:00 26.7 9 Sudeste 21 Sudeste 0 -- -- 32
2020-09-16 16:00:00 26.5 9 Sudeste 23 Sudeste 0 -- -- 33
2020-09-16 15:00:00 26.4 7 Sur 20 Sur 0 -- -- 34
2020-09-16 14:00:00 25.8 13 Sur 22 Sur 0 -- -- 37
2020-09-16 13:00:00 23.9 8 Sudeste 15 Sudeste 0 -- -- 41
2020-09-16 12:00:00 21 3 Sur 9 Este 0 -- -- 50
2020-09-16 11:00:00 17.9 3 Este 6 Este 0 -- -- 62
2020-09-16 10:00:00 13.4 3 Sur 4 Norte 0 -- -- 76
2020-09-16 09:00:00 9 0 Calma 3 Oeste 0 -- -- 88
2020-09-16 08:00:00 7.5 3 Oeste 4 Oeste 0 -- -- 88
2020-09-16 07:00:00 7.6 0 Calma 4 Oeste 0 -- -- 87
2020-09-16 06:00:00 7.9 2 Noroeste 6 Norte 0 -- -- 88
2020-09-16 05:00:00 8.8 0 Calma 2 Sur 0 -- -- 83
2020-09-16 04:00:00 9.3 0 Calma 5 Oeste 0 -- -- 82
2020-09-16 03:00:00 9.9 2 Noroeste 4 Noroeste 0 -- -- 80
2020-09-16 02:00:00 11.2 3 Oeste 5 Noroeste 0 -- -- 75
2020-09-16 01:00:00 12.2 3 Noroeste 6 Noroeste 0 -- -- 73
2020-09-16 00:00:00 13.7 0 Calma 4 Este 0 -- -- 70
2020-09-15 23:00:00 15.8 0 Calma 7 Noroeste 0 -- -- 60
2020-09-15 22:00:00 18 0 Calma 6 Oeste 0 -- -- 55
2020-09-15 21:00:00 21.3 7 Oeste 13 Oeste 0 -- -- 45
2020-09-15 20:00:00 23.8 8 Oeste 18 Oeste 0 -- -- 39
2020-09-15 19:00:00 25.6 10 Oeste 22 Sudoeste 0 -- -- 35
2020-09-15 18:00:00 26.8 13 Sudoeste 28 Sudoeste 0 -- -- 34
2020-09-15 17:00:00 27.1 16 Sudoeste 29 Sudoeste 0 -- -- 32
2020-09-15 16:00:00 26.1 19 Sudoeste 31 Sudoeste 0 -- -- 37
2020-09-15 15:00:00 25 13 Sudoeste 26 Sudeste 0 -- -- 41
2020-09-15 14:00:00 23.9 10 Sudoeste 24 Sur 0 -- -- 48
2020-09-15 13:00:00 23.3 6 Sudoeste 17 Sudoeste 0 -- -- 53
2020-09-15 12:00:00 20.9 4 Este 9 Este 0 -- -- 65
2020-09-15 11:00:00 18.4 4 Nordeste 9 Este 0 -- -- 75
2020-09-15 10:00:00 15.9 0 Calma 5 Sudeste 0 -- -- 83
2020-09-15 09:00:00 13.9 0 Calma 8 Nordeste 0 -- -- 88
2020-09-15 08:00:00 13.6 4 Norte 9 Noroeste 0 -- -- 88
2020-09-15 07:00:00 14.4 6 Norte 10 Norte 0 -- -- 88
2020-09-15 06:00:00 14.6 5 Noroeste 10 Noroeste 0 -- -- 88
2020-09-15 05:00:00 13.7 4 Noroeste 11 Noroeste 0 -- -- 85
2020-09-15 04:00:00 13.5 4 Noroeste 9 Noroeste 0 -- -- 83
2020-09-15 03:00:00 14.1 6 Oeste 9 Oeste 0 -- -- 80
2020-09-15 02:00:00 15 5 Oeste 9 Noroeste 0 -- -- 78
2020-09-15 01:00:00 15.4 5 Noroeste 17 Este 0 -- -- 76
2020-09-15 00:00:00 15.8 6 Norte 10 Norte 0 -- -- 71
2020-09-14 23:00:00 17.2 0 Calma 4 Norte 0 -- -- 67
2020-09-14 22:00:00 19.3 2 Este 7 Sudoeste 0 -- -- 59
2020-09-14 21:00:00 22.3 6 Oeste 17 Sudoeste 0 -- -- 48
2020-09-14 20:00:00 25.4 11 Sudoeste 31 Sudoeste 0 -- -- 36
2020-09-14 19:00:00 26.5 19 Sudoeste 32 Sudoeste 0 -- -- 38
2020-09-14 18:00:00 26.5 11 Sudeste 32 Sur 0.8 -- -- 45
2020-09-14 17:00:00 27.7 18 Sudeste 32 Sudoeste 0 -- -- 43
2020-09-14 16:00:00 27.5 8 Sudeste 24 Sur 0 -- -- 36
2020-09-14 15:00:00 25.9 8 Sudeste 19 Sudeste 0 -- -- 40
2020-09-14 14:00:00 23.5 5 Este 12 Nordeste 0 -- -- 44
2020-09-14 13:00:00 20.1 4 Este 10 Nordeste 0 -- -- 53
2020-09-14 12:00:00 18.2 3 Sudoeste 9 Sudoeste 0 -- -- 62
2020-09-14 11:00:00 17 3 Sur 8 Este 0 -- -- 71
2020-09-14 10:00:00 16.4 0 Calma 4 Noroeste 0 -- -- 61
2020-09-14 09:00:00 13.7 3 Nordeste 16 Sudoeste 0 -- -- 70
2020-09-14 08:00:00 12.9 9 Sudoeste 12 Sudoeste 0 -- -- 70
2020-09-14 07:00:00 13.3 0 Calma 9 Noroeste 0 -- -- 67
2020-09-14 06:00:00 14.2 4 Oeste 12 Nordeste 0 -- -- 65
2020-09-14 05:00:00 14.2 8 Nordeste 19 Oeste 0 -- -- 65
2020-09-14 04:00:00 13 6 Noroeste 10 Oeste 0 -- -- 72
2020-09-14 03:00:00 14.8 3 Sudeste 5 Sudeste 0 -- -- 61
2020-09-14 02:00:00 15.4 4 Noroeste 7 Noroeste 0 -- -- 62
2020-09-14 01:00:00 16.8 3 Nordeste 5 Norte 0 -- -- 57
2020-09-14 00:00:00 18.4 0 Calma 7 Noroeste 0 -- -- 52
2020-09-13 23:00:00 20.9 3 Oeste 5 Oeste 0 -- -- 45
2020-09-13 22:00:00 23.2 3 Norte 10 Sudoeste 0 -- -- 37
2020-09-13 21:00:00 26.7 9 Sudoeste 14 Este 0 -- -- 29
2020-09-13 20:00:00 28.9 10 Este 22 Sudeste 0 -- -- 25
2020-09-13 19:00:00 31.8 10 Sudeste 23 Este 0 -- -- 22
2020-09-13 18:00:00 30.9 8 Sudeste 16 Sudeste 0 -- -- 24
2020-09-13 17:00:00 31.1 4 Noroeste 16 Sudeste 0 -- -- 22
2020-09-13 16:00:00 30.8 5 Sur 21 Sudoeste 0 -- -- 23
2020-09-13 15:00:00 29.7 4 Nordeste 12 Sudoeste 0 -- -- 24
2020-09-13 14:00:00 28.6 6 Sur 18 Nordeste 0 -- -- 25
2020-09-13 13:00:00 26.2 6 Nordeste 14 Este 0 -- -- 27
2020-09-13 12:00:00 24.3 10 Nordeste 16 Este 0 -- -- 29
2020-09-13 11:00:00 22.5 9 Nordeste 16 Nordeste 0 -- -- 32
2020-09-13 10:00:00 19.7 5 Nordeste 9 Norte 0 -- -- 39
2020-09-13 09:00:00 13.8 0 Calma 9 Nordeste 0 -- -- 57
2020-09-13 08:00:00 13.8 4 Nordeste 12 Nordeste 0 -- -- 53
2020-09-13 07:00:00 14.3 7 Nordeste 13 Nordeste 0 -- -- 52
2020-09-13 06:00:00 13.8 3 Norte 6 Este 0 -- -- 56
2020-09-13 05:00:00 14.1 2 Norte 8 Noroeste 0 -- -- 57
2020-09-13 04:00:00 14.6 2 Norte 8 Nordeste 0 -- -- 56
2020-09-13 03:00:00 15.2 5 Norte 11 Norte 0 -- -- 53
2020-09-13 02:00:00 15.1 5 Norte 9 Norte 0 -- -- 51
2020-09-13 01:00:00 14.5 6 Norte 10 Oeste 0 -- -- 53
2020-09-13 00:00:00 15.6 6 Oeste 10 Noroeste 0 -- -- 52
2020-09-12 23:00:00 16.9 5 Noroeste 10 Noroeste 0 -- -- 48
2020-09-12 22:00:00 20.2 6 Noroeste 7 Noroeste 0 -- -- 39
2020-09-12 21:00:00 23.6 0 Calma 9 Nordeste 0 -- -- 32
2020-09-12 20:00:00 26.9 7 Nordeste 18 Este 0 -- -- 25
2020-09-12 19:00:00 29.3 14 Nordeste 22 Nordeste 0 -- -- 22
2020-09-12 18:00:00 30.3 9 Este 24 Sudeste 0 -- -- 22
2020-09-12 17:00:00 30.3 11 Este 22 Este 0 -- -- 22
2020-09-12 16:00:00 30.3 10 Sudeste 21 Sudeste 0 -- -- 23
2020-09-12 15:00:00 29.1 5 Sur 20 Sudeste 0 -- -- 25
2020-09-12 14:00:00 27.4 8 Este 20 Este 0 -- -- 29
2020-09-12 13:00:00 25.6 5 Este 19 Este 0 -- -- 36
2020-09-12 12:00:00 23.3 7 Nordeste 13 Nordeste 0 -- -- 41
2020-09-12 11:00:00 21 8 Nordeste 16 Norte 0 -- -- 51
2020-09-12 10:00:00 17.8 3 Norte 6 Sudoeste 0 -- -- 66
2020-09-12 09:00:00 13.4 4 Sur 4 Sur 0 -- -- 78
2020-09-12 08:00:00 12.4 2 Sudoeste 8 Norte 0 -- -- 79
2020-09-12 07:00:00 13.4 0 Calma 7 Norte 0 -- -- 77
2020-09-12 06:00:00 13.9 3 Norte 10 Norte 0 -- -- 73
2020-09-12 05:00:00 14.3 8 Nordeste 11 Norte 0 -- -- 69
2020-09-12 04:00:00 15 3 Nordeste 8 Norte 0 -- -- 65
2020-09-12 03:00:00 16.1 5 Norte 9 Norte 0 -- -- 61
2020-09-12 02:00:00 17.6 6 Norte 12 Norte 0 -- -- 54
2020-09-12 01:00:00 19.1 6 Norte 14 Norte 0 -- -- 51
2020-09-12 00:00:00 17.6 6 Norte 18 Nordeste 0 -- -- 52
2020-09-11 23:00:00 18.2 8 Noroeste 13 Noroeste 0 -- -- 51
2020-09-11 22:00:00 20.3 6 Oeste 8 Oeste 0 -- -- 44
2020-09-11 21:00:00 23.2 5 Este 12 Sudeste 0 -- -- 36
2020-09-11 20:00:00 26.5 7 Sudeste 18 Sur 0 -- -- 29
2020-09-11 19:00:00 29.2 10 Sudeste 21 Sudeste 0 -- -- 26
2020-09-11 18:00:00 29.7 8 Sudoeste 14 Sudoeste 0 -- -- 25
2020-09-11 17:00:00 29.1 5 Noroeste 14 Sudoeste 0 -- -- 26
2020-09-11 16:00:00 28.5 6 Este 16 Sur 0 -- -- 28
2020-09-11 15:00:00 27.5 4 Sudoeste 15 Nordeste 0 -- -- 30
2020-09-11 14:00:00 25.7 5 Norte 13 Este 0 -- -- 34
2020-09-11 13:00:00 23.7 8 Norte 28 Nordeste 0 -- -- 39
2020-09-11 12:00:00 22 9 Nordeste 17 Norte 0 -- -- 44
2020-09-11 11:00:00 20.1 8 Nordeste 14 Nordeste 0 -- -- 53
2020-09-11 10:00:00 17.5 8 Nordeste 17 Nordeste 0 -- -- 63
2020-09-11 09:00:00 12.6 3 Noroeste 8 Noroeste 0 -- -- 80
2020-09-11 08:00:00 11.3 3 Noroeste 6 Oeste 0 -- -- 79
2020-09-11 07:00:00 12 0 Calma 6 Norte 0 -- -- 78
2020-09-11 06:00:00 12.7 3 Norte 5 Norte 0 -- -- 74
2020-09-11 05:00:00 13.4 3 Noroeste 7 Norte 0 -- -- 73
2020-09-11 04:00:00 15 6 Norte 10 Norte 0 -- -- 67
2020-09-11 03:00:00 15.5 6 Norte 10 Norte 0 -- -- 65
2020-09-11 02:00:00 16.2 4 Norte 9 Norte 0 -- -- 61
2020-09-11 01:00:00 17.2 6 Norte 17 Nordeste 0 -- -- 54
2020-09-11 00:00:00 15.5 6 Norte 16 Nordeste 0 -- -- 56
2020-09-10 23:00:00 17 7 Noroeste 12 Noroeste 0 -- -- 51
2020-09-10 22:00:00 20.2 4 Noroeste 9 Este 0 -- -- 42
2020-09-10 21:00:00 23.6 6 Sudeste 15 Este 0 -- -- 31
2020-09-10 20:00:00 26.8 10 Este 19 Sudeste 0 -- -- 25
2020-09-10 19:00:00 28.1 10 Sudeste 22 Este 0 -- -- 24
2020-09-10 18:00:00 28.7 8 Este 13 Este 0 -- -- 26
2020-09-10 17:00:00 28.2 4 Nordeste 16 Este 0 -- -- 25
2020-09-10 16:00:00 27.8 6 Sur 17 Este 0 -- -- 28
2020-09-10 15:00:00 26.6 5 Noroeste 13 Nordeste 0 -- -- 30
2020-09-10 14:00:00 25.5 5 Este 12 Sudeste 0 -- -- 35
2020-09-10 13:00:00 24 6 Nordeste 15 Este 0 -- -- 39
2020-09-10 12:00:00 22.4 8 Este 16 Este 0 -- -- 43
2020-09-10 11:00:00 20.7 9 Nordeste 19 Este 0 -- -- 47
2020-09-10 10:00:00 16.8 0 Calma 4 Noroeste 0 -- -- 60
2020-09-10 09:00:00 13 0 Calma 4 Noroeste 0 -- -- 75
2020-09-10 08:00:00 10.1 0 Calma 8 Noroeste 0 -- -- 78
2020-09-10 07:00:00 11.2 4 Noroeste 7 Noroeste 0 -- -- 72
2020-09-10 06:00:00 10.9 3 Noroeste 5 Noroeste 0 -- -- 73
2020-09-10 05:00:00 11 2 Noroeste 6 Noroeste 0 -- -- 72
2020-09-10 04:00:00 11.7 4 Noroeste 9 Noroeste 0 -- -- 69
2020-09-10 03:00:00 13.6 4 Noroeste 11 Noroeste 0 -- -- 64
2020-09-10 02:00:00 14.2 9 Noroeste 11 Noroeste 0 -- -- 62
2020-09-10 01:00:00 15 5 Noroeste 12 Nordeste 0 -- -- 53
2020-09-10 00:00:00 13.2 7 Nordeste 12 Nordeste 0 -- -- 53
2020-09-09 23:00:00 14.9 6 Noroeste 8 Noroeste 0 -- -- 51
2020-09-09 22:00:00 19.5 3 Oeste 8 Nordeste 0 -- -- 35
2020-09-09 21:00:00 22.5 4 Nordeste 10 Este 0 -- -- 35
2020-09-09 20:00:00 26.9 8 Sudeste 15 Sur 0 -- -- 23
2020-09-09 19:00:00 27.9 6 Sudeste 15 Este 0 -- -- 22
2020-09-09 18:00:00 27.7 6 Nordeste 17 Sudeste 0 -- -- 22
2020-09-09 17:00:00 27.9 4 Nordeste 18 Noroeste 0 -- -- 22
2020-09-09 16:00:00 27.2 5 Oeste 16 Sur 0 -- -- 21
2020-09-09 15:00:00 26.3 6 Nordeste 17 Sudeste 0 -- -- 23
2020-09-09 14:00:00 25.1 7 Este 15 Este 0 -- -- 27
2020-09-09 13:00:00 23.5 7 Este 16 Nordeste 0 -- -- 32
2020-09-09 12:00:00 21.1 6 Norte 17 Nordeste 0 -- -- 38
2020-09-09 11:00:00 19 9 Nordeste 15 Nordeste 0 -- -- 43
2020-09-09 10:00:00 16.3 6 Norte 12 Norte 0 -- -- 51
2020-09-09 09:00:00 12.1 0 Calma 12 Norte 0 -- -- 64
2020-09-09 08:00:00 9.5 7 Nordeste 9 Nordeste 0 -- -- 69
2020-09-09 07:00:00 11 6 Nordeste 10 Nordeste 0 -- -- 63
2020-09-09 06:00:00 11.6 6 Nordeste 10 Nordeste 0 -- -- 63
2020-09-09 05:00:00 11.2 0 Calma 10 Norte 0 -- -- 65
2020-09-09 04:00:00 12.4 2 Norte 6 Nordeste 0 -- -- 60
2020-09-09 03:00:00 12.1 4 Noroeste 10 Noroeste 0 -- -- 61
2020-09-09 02:00:00 11.3 6 Noroeste 13 Noroeste 0 -- -- 62
2020-09-09 01:00:00 12.4 6 Noroeste 9 Noroeste 0 -- -- 58
2020-09-09 00:00:00 14.1 3 Noroeste 5 Noroeste 0 -- -- 52
2020-09-08 23:00:00 15.1 0 Calma 10 Noroeste 0 -- -- 48
2020-09-08 22:00:00 16.9 8 Noroeste 10 Noroeste 0 -- -- 44
2020-09-08 21:00:00 20.4 6 Norte 13 Nordeste 0 -- -- 36
2020-09-08 20:00:00 23.5 9 Nordeste 17 Este 0 -- -- 29
2020-09-08 19:00:00 24.5 13 Nordeste 25 Este 0 -- -- 28
2020-09-08 18:00:00 24.8 10 Nordeste 23 Este 0 -- -- 27
2020-09-08 17:00:00 24.5 13 Este 30 Este 0 -- -- 28
2020-09-08 16:00:00 23.7 18 Este 31 Este 0 -- -- 29
2020-09-08 15:00:00 22.5 16 Nordeste 31 Nordeste 0 -- -- 31
2020-09-08 14:00:00 20.7 14 Nordeste 27 Nordeste 0 -- -- 37
2020-09-08 13:00:00 18.9 15 Nordeste 27 Nordeste 0 -- -- 45
2020-09-08 12:00:00 17 16 Nordeste 28 Este 0 -- -- 53
2020-09-08 11:00:00 15.6 16 Nordeste 26 Nordeste 0 -- -- 56
2020-09-08 10:00:00 13.4 12 Nordeste 21 Norte 0 -- -- 62
2020-09-08 09:00:00 11.1 12 Norte 18 Norte 0 -- -- 69
2020-09-08 08:00:00 8.7 9 Norte 16 Norte 0 -- -- 75
2020-09-08 07:00:00 8.8 9 Norte 16 Norte 0 -- -- 75
2020-09-08 06:00:00 8.6 7 Norte 14 Norte 0 -- -- 74
2020-09-08 05:00:00 9.1 9 Norte 14 Norte 0 -- -- 70
2020-09-08 04:00:00 9.2 7 Norte 12 Norte 0 -- -- 71
2020-09-08 03:00:00 9.8 5 Norte 10 Nordeste 0 -- -- 69
2020-09-08 02:00:00 11 7 Norte 12 Norte 0 -- -- 64
2020-09-08 01:00:00 12.2 5 Noroeste 9 Nordeste 0 -- -- 62
2020-09-08 00:00:00 14.1 4 Este 16 Este 0 -- -- 56
2020-09-07 23:00:00 15.2 8 Este 21 Este 0 -- -- 54
2020-09-07 22:00:00 16.7 16 Este 22 Este 0 -- -- 49
2020-09-07 21:00:00 18.6 11 Este 20 Este 0 -- -- 45
2020-09-07 20:00:00 21.7 12 Este 26 Este 0 -- -- 37
2020-09-07 19:00:00 22.7 14 Este 27 Este 0 -- -- 34
2020-09-07 18:00:00 23.1 9 Nordeste 27 Nordeste 0 -- -- 34
2020-09-07 17:00:00 22.8 10 Este 33 Este 0 -- -- 33
2020-09-07 16:00:00 22.3 11 Este 27 Este 0 -- -- 36
2020-09-07 15:00:00 21.5 11 Este 27 Este 0 -- -- 37
2020-09-07 14:00:00 20.3 14 Este 27 Este 0 -- -- 41
2020-09-07 13:00:00 18.6 9 Este 28 Este 0 -- -- 49
2020-09-07 12:00:00 17 8 Nordeste 22 Este 0 -- -- 55
2020-09-07 11:00:00 15.2 15 Este 26 Este 0 -- -- 63
2020-09-07 10:00:00 12.7 6 Este 10 Nordeste 0 -- -- 74
2020-09-07 09:00:00 7.9 0 Calma 4 Noroeste 0 -- -- 89
2020-09-07 08:00:00 6.8 2 Noroeste 6 Noroeste 0 -- -- 89
2020-09-07 07:00:00 7.1 3 Noroeste 6 Noroeste 0 -- -- 88
2020-09-07 06:00:00 7.5 3 Noroeste 6 Noroeste 0 -- -- 85
2020-09-07 05:00:00 7.9 3 Noroeste 8 Noroeste 0 -- -- 84
2020-09-07 04:00:00 8.5 6 Noroeste 8 Noroeste 0 -- -- 83
2020-09-07 03:00:00 9.9 3 Noroeste 7 Este 0 -- -- 78
2020-09-07 02:00:00 12 6 Este 11 Este 0 -- -- 69
2020-09-07 01:00:00 13.1 6 Este 11 Este 0 -- -- 64
2020-09-07 00:00:00 14.2 7 Este 14 Este 0 -- -- 62
2020-09-06 23:00:00 16 9 Este 26 Este 0 -- -- 56
2020-09-06 22:00:00 18.1 14 Este 36 Este 0 -- -- 48
2020-09-06 21:00:00 21.9 17 Este 36 Este 0 -- -- 40
2020-09-06 20:00:00 25.6 14 Sudeste 23 Este 0 -- -- 38
2020-09-06 19:00:00 27.2 12 Sudeste 21 Este 0 -- -- 36
2020-09-06 18:00:00 27.6 12 Sudeste 22 Sudeste 0 -- -- 36
2020-09-06 17:00:00 27 8 Este 22 Sudeste 0 -- -- 37
2020-09-06 16:00:00 25.9 8 Nordeste 26 Este 0 -- -- 40
2020-09-06 15:00:00 24.7 9 Nordeste 22 Este 0 -- -- 44
2020-09-06 14:00:00 23.5 6 Este 19 Este 0 -- -- 47
2020-09-06 13:00:00 21.3 10 Nordeste 18 Nordeste 0 -- -- 54
2020-09-06 12:00:00 19.8 7 Nordeste 18 Este 0 -- -- 60
2020-09-06 11:00:00 17.7 11 Este 19 Este 0 -- -- 65
2020-09-06 10:00:00 15.5 8 Nordeste 14 Nordeste 0 -- -- 76
2020-09-06 09:00:00 12.9 3 Norte 7 Noroeste 0 -- -- 88
2020-09-06 08:00:00 11.9 4 Norte 6 Norte 0 -- -- 89
2020-09-06 07:00:00 12.4 3 Norte 10 Norte 0 -- -- 87
2020-09-06 06:00:00 12.8 4 Norte 16 Norte 0 -- -- 86
2020-09-06 05:00:00 12.9 10 Norte 13 Norte 0 -- -- 86
2020-09-06 04:00:00 13.7 3 Norte 5 Este 0 -- -- 82
2020-09-06 03:00:00 14.5 3 Nordeste 13 Este 0 -- -- 79
2020-09-06 02:00:00 15.3 6 Este 14 Sudeste 0 -- -- 77
2020-09-06 01:00:00 16.3 7 Sudeste 13 Este 0 -- -- 72
2020-09-06 00:00:00 18.1 8 Este 34 Este 0 -- -- 65
2020-09-05 23:00:00 19.9 11 Este 35 Nordeste 0 -- -- 58
2020-09-05 22:00:00 22.5 14 Este 31 Este 0 -- -- 50
2020-09-05 21:00:00 25.5 19 Este 36 Este 0 -- -- 40
2020-09-05 20:00:00 28.8 11 Este 25 Este 0 -- -- 27
2020-09-05 19:00:00 30.6 6 Este 18 Este 0 -- -- 25
2020-09-05 18:00:00 30.9 8 Sudeste 19 Sudeste 0 -- -- 25
2020-09-05 17:00:00 30.9 6 Oeste 16 Sudeste 0 -- -- 24
2020-09-05 16:00:00 30.3 6 Sur 21 Este 0 -- -- 28
2020-09-05 15:00:00 29.4 9 Sudeste 21 Sudeste 0 -- -- 32
2020-09-05 14:00:00 27.8 6 Este 19 Este 0 -- -- 37
2020-09-05 13:00:00 25.7 8 Este 16 Este 0 -- -- 39
2020-09-05 12:00:00 24.3 6 Nordeste 22 Este 0 -- -- 41
2020-09-05 11:00:00 22.8 8 Este 21 Este 0 -- -- 43
2020-09-05 10:00:00 18.4 2 Noroeste 4 Noroeste 0 -- -- 55
2020-09-05 09:00:00 13.2 0 Calma 4 Este 0 -- -- 72
2020-09-05 08:00:00 11.8 3 Oeste 7 Sudoeste 0 -- -- 72
2020-09-05 07:00:00 13.2 3 Oeste 7 Sudoeste 0 -- -- 68
2020-09-05 06:00:00 14 6 Oeste 8 Oeste 0 -- -- 68
2020-09-05 05:00:00 15.2 4 Oeste 9 Noroeste 0 -- -- 66
2020-09-05 04:00:00 15.6 6 Noroeste 10 Sudeste 0 -- -- 63
2020-09-05 03:00:00 16.4 2 Nordeste 10 Este 0 -- -- 58
2020-09-05 02:00:00 17.5 3 Oeste 10 Sudoeste 0 -- -- 51
2020-09-05 01:00:00 19 6 Sudoeste 21 Noroeste 0 -- -- 45
2020-09-05 00:00:00 22.1 13 Noroeste 20 Noroeste 0 -- -- 39
2020-09-04 23:00:00 21.3 11 Noroeste 14 Noroeste 0 -- -- 39
2020-09-04 22:00:00 21.8 5 Norte 8 Noroeste 0 -- -- 38
2020-09-04 21:00:00 26.7 4 Oeste 19 Oeste 0 -- -- 25
2020-09-04 20:00:00 30.4 11 Oeste 23 Sudoeste 0 -- -- 20
2020-09-04 19:00:00 31.8 9 Oeste 25 Sudoeste 0 -- -- 19
2020-09-04 18:00:00 32 13 Sudoeste 28 Sudoeste 0 -- -- 18
2020-09-04 17:00:00 32.2 15 Sudoeste 30 Oeste 0 -- -- 18
2020-09-04 16:00:00 32.1 15 Sudoeste 25 Sudoeste 0 -- -- 19
2020-09-04 15:00:00 31 9 Sudoeste 21 Sudoeste 0 -- -- 22
2020-09-04 14:00:00 29.3 6 Sudoeste 14 Sudoeste 0 -- -- 23
2020-09-04 13:00:00 26.5 4 Nordeste 9 Nordeste 0 -- -- 28
2020-09-04 12:00:00 24.3 4 Este 13 Nordeste 0 -- -- 34
2020-09-04 11:00:00 21.5 7 Nordeste 13 Nordeste 0 -- -- 39
2020-09-04 10:00:00 17.2 0 Calma 6 Sudoeste 0 -- -- 54
2020-09-04 09:00:00 12.3 2 Sudoeste 6 Oeste 0 -- -- 70
2020-09-04 08:00:00 9.8 0 Calma 5 Sudoeste 0 -- -- 73
2020-09-04 07:00:00 12.2 4 Oeste 10 Oeste 0 -- -- 64
2020-09-04 06:00:00 11.3 4 Oeste 7 Oeste 0 -- -- 71
2020-09-04 05:00:00 12.1 3 Oeste 7 Oeste 0 -- -- 67
2020-09-04 04:00:00 13.4 6 Sudoeste 8 Noroeste 0 -- -- 61
2020-09-04 03:00:00 12.7 3 Noroeste 6 Oeste 0 -- -- 64
2020-09-04 02:00:00 13.8 5 Oeste 8 Noroeste 0 -- -- 60
2020-09-04 01:00:00 14.5 4 Noroeste 10 Noroeste 0 -- -- 57
2020-09-04 00:00:00 15 8 Noroeste 9 Oeste 0 -- -- 56
2020-09-03 23:00:00 16.7 6 Noroeste 9 Noroeste 0 -- -- 53
2020-09-03 22:00:00 20.5 0 Calma 8 Sudeste 0 -- -- 42
2020-09-03 21:00:00 25.1 6 Sudeste 17 Este 0 -- -- 28
2020-09-03 20:00:00 28.7 9 Sudeste 21 Sudeste 0 -- -- 23
2020-09-03 19:00:00 29.8 4 Este 15 Este 0 -- -- 22
2020-09-03 18:00:00 29.7 4 Sudeste 18 Este 0 -- -- 22
2020-09-03 17:00:00 29.8 7 Sur 16 Sudoeste 0 -- -- 23
2020-09-03 16:00:00 28.5 5 Nordeste 16 Noroeste 0 -- -- 24
2020-09-03 15:00:00 28 6 Sur 19 Oeste 0 -- -- 29
2020-09-03 14:00:00 26.3 6 Sudoeste 19 Sudeste 0 -- -- 32
2020-09-03 13:00:00 24 4 Noroeste 11 Este 0 -- -- 40
2020-09-03 12:00:00 21.5 5 Este 12 Sur 0 -- -- 43
2020-09-03 11:00:00 18.9 4 Nordeste 8 Nordeste 0 -- -- 56
2020-09-03 10:00:00 15.6 2 Sur 5 Sur 0 -- -- 66
2020-09-03 09:00:00 11.6 0 Calma 6 Oeste 0 -- -- 79
2020-09-03 08:00:00 9.4 4 Oeste 8 Noroeste 0 -- -- 84
2020-09-03 07:00:00 9.2 3 Oeste 6 Sudoeste 0 -- -- 82
2020-09-03 06:00:00 10 0 Calma 4 Noroeste 0 -- -- 81
2020-09-03 05:00:00 10.8 2 Noroeste 6 Noroeste 0 -- -- 78
2020-09-03 04:00:00 11.5 4 Noroeste 9 Noroeste 0 -- -- 76
2020-09-03 03:00:00 12.1 5 Noroeste 10 Noroeste 0 -- -- 73
2020-09-03 02:00:00 13.8 5 Noroeste 12 Norte 0 -- -- 67
2020-09-03 01:00:00 13.9 3 Noroeste 10 Noroeste 0 -- -- 65
2020-09-03 00:00:00 14.3 8 Noroeste 10 Noroeste 0 -- -- 66
2020-09-02 23:00:00 16.1 6 Noroeste 8 Noroeste 0 -- -- 61
2020-09-02 22:00:00 19.8 0 Calma 10 Este 0 -- -- 46
2020-09-02 21:00:00 22.4 7 Este 13 Este 0 -- -- 40
2020-09-02 20:00:00 26 8 Este 12 Este 0 -- -- 30
2020-09-02 19:00:00 26.5 5 Nordeste 10 Nordeste 0 -- -- 25
2020-09-02 18:00:00 26.1 3 Norte 10 Oeste 0 -- -- 25
2020-09-02 17:00:00 26 6 Oeste 14 Noroeste 0 -- -- 28
2020-09-02 16:00:00 25.2 6 Sudeste 17 Este 0 -- -- 34
2020-09-02 15:00:00 24 5 Sudeste 15 Este 0 -- -- 37
2020-09-02 14:00:00 22.5 8 Este 22 Este 0 -- -- 43
2020-09-02 13:00:00 20.4 9 Este 21 Este 0 -- -- 50
2020-09-02 12:00:00 18.3 11 Nordeste 18 Nordeste 0 -- -- 56
2020-09-02 11:00:00 16.8 13 Este 20 Este 0 -- -- 61
2020-09-02 10:00:00 14.8 9 Nordeste 15 Norte 0 -- -- 71
2020-09-02 09:00:00 11 5 Noroeste 8 Noroeste 0 -- -- 88
2020-09-02 08:00:00 8.4 5 Noroeste 9 Noroeste 0 -- -- 89
2020-09-02 07:00:00 8.8 4 Oeste 13 Noroeste 0 -- -- 90
2020-09-02 06:00:00 8.4 5 Noroeste 8 Noroeste 0 -- -- 89
2020-09-02 05:00:00 9 5 Noroeste 9 Noroeste 0 -- -- 88
2020-09-02 04:00:00 10.8 3 Noroeste 6 Noroeste 0 -- -- 79
2020-09-02 03:00:00 12.2 3 Noroeste 8 Nordeste 0 -- -- 76
2020-09-02 02:00:00 13.8 4 Nordeste 8 Nordeste 0 -- -- 71
2020-09-02 01:00:00 15.2 3 Norte 15 Nordeste 0 -- -- 66
2020-09-02 00:00:00 16.2 10 Nordeste 23 Nordeste 0 -- -- 63
2020-09-01 23:00:00 17.5 17 Nordeste 31 Norte 0 -- -- 58
2020-09-01 22:00:00 19.1 7 Nordeste 28 Norte 0 -- -- 43
2020-09-01 21:00:00 21.7 6 Nordeste 15 Nordeste 0 -- -- 34
2020-09-01 20:00:00 24.6 12 Este 19 Este 0 -- -- 28
2020-09-01 19:00:00 25.7 6 Nordeste 23 Nordeste 0 -- -- 26
2020-09-01 18:00:00 26 6 Sudeste 15 Nordeste 0 -- -- 24
2020-09-01 17:00:00 25.6 3 Noroeste 21 Norte 0 -- -- 27
2020-09-01 16:00:00 25.2 7 Nordeste 18 Norte 0 -- -- 26
2020-09-01 15:00:00 24.9 7 Este 18 Este 0 -- -- 27
2020-09-01 14:00:00 23.8 5 Sur 15 Sur 0 -- -- 29
2020-09-01 13:00:00 22.7 7 Sur 18 Este 0 -- -- 35
2020-09-01 12:00:00 20.4 6 Norte 15 Nordeste 0 -- -- 42
2020-09-01 11:00:00 17.3 5 Nordeste 13 Este 0 -- -- 51
2020-09-01 10:00:00 15.5 9 Norte 16 Norte 0 -- -- 57
2020-09-01 09:00:00 12.5 2 Sudoeste 9 Noroeste 0 -- -- 70
2020-09-01 08:00:00 12.1 2 Norte 10 Norte 0 -- -- 67
2020-09-01 07:00:00 11.6 5 Noroeste 11 Noroeste 0 -- -- 69
2020-09-01 06:00:00 11.3 7 Noroeste 9 Noroeste 0 -- -- 73
2020-09-01 05:00:00 12.5 2 Oeste 9 Oeste 0 -- -- 66
2020-09-01 04:00:00 12.8 0 Calma 4 Noroeste 0 -- -- 68
2020-09-01 03:00:00 13.1 2 Norte 10 Noroeste 0 -- -- 68
2020-09-01 02:00:00 12.9 3 Noroeste 8 Noroeste 0 -- -- 68
2020-09-01 01:00:00 13.5 5 Noroeste 7 Oeste 0 -- -- 60
2020-09-01 00:00:00 13.1 4 Noroeste 8 Noroeste 0 -- -- 61
2020-08-31 23:00:00 14.7 5 Noroeste 7 Noroeste 0 -- -- 56
2020-08-31 22:00:00 16.9 2 Noroeste 5 Oeste 0 -- -- 45
2020-08-31 21:00:00 18.8 3 Norte 19 Nordeste 0 -- -- 40
2020-08-31 20:00:00 22.2 4 Oeste 18 Sudoeste 0 -- -- 33
2020-08-31 19:00:00 23.8 7 Sudoeste 27 Sudoeste 0 -- -- 27
2020-08-31 18:00:00 23.9 11 Sur 21 Sur 0 -- -- 25
2020-08-31 17:00:00 23.1 8 Sudoeste 24 Oeste 0 -- -- 27
2020-08-31 16:00:00 22.2 7 Sur 21 Sudoeste 0 -- -- 32
2020-08-31 15:00:00 20.6 7 Sur 17 Sudoeste 0 -- -- 33
2020-08-31 14:00:00 19.3 6 Sudeste 16 Sudoeste 0 -- -- 40
2020-08-31 13:00:00 16.4 3 Oeste 11 Nordeste 0 -- -- 49
2020-08-31 12:00:00 14.2 3 Norte 10 Nordeste 0 -- -- 56
2020-08-31 11:00:00 13.1 4 Nordeste 12 Nordeste 0 -- -- 60
2020-08-31 10:00:00 11.5 5 Norte 9 Nordeste 0 -- -- 72
2020-08-31 09:00:00 7.7 3 Noroeste 4 Noroeste 0 -- -- 86
2020-08-31 08:00:00 5.4 0 Calma 3 Noroeste 0 -- -- 89
2020-08-31 07:00:00 5.6 0 Calma 4 Noroeste 0 -- -- 87
2020-08-31 06:00:00 5.8 2 Norte 4 Noroeste 0 -- -- 87
2020-08-31 05:00:00 6.3 2 Norte 5 Nordeste 0 -- -- 85
2020-08-31 04:00:00 7 3 Norte 6 Nordeste 0 -- -- 79
2020-08-31 03:00:00 8.6 5 Norte 9 Norte 0 -- -- 76
2020-08-31 02:00:00 9.9 3 Nordeste 10 Nordeste 0 -- -- 69
2020-08-31 01:00:00 10.4 2 Nordeste 17 Este 0 -- -- 66
2020-08-31 00:00:00 9.8 4 Norte 12 Nordeste 0 -- -- 64
2020-08-30 23:00:00 9.9 4 Noroeste 6 Noroeste 0 -- -- 61
2020-08-30 22:00:00 13.8 2 Nordeste 7 Este 0 -- -- 43
2020-08-30 21:00:00 16.8 6 Este 19 Este 0 -- -- 35
2020-08-30 20:00:00 18.9 13 Este 19 Nordeste 0 -- -- 29
2020-08-30 19:00:00 19.7 8 Nordeste 22 Este 0 -- -- 28
2020-08-30 18:00:00 19.9 10 Nordeste 25 Nordeste 0 -- -- 30
2020-08-30 17:00:00 19.6 8 Nordeste 22 Nordeste 0 -- -- 29
2020-08-30 16:00:00 19.4 7 Nordeste 30 Este 0 -- -- 33
2020-08-30 15:00:00 17.5 10 Nordeste 22 Norte 0 -- -- 35
2020-08-30 14:00:00 17.9 11 Nordeste 19 Nordeste 0 -- -- 36
2020-08-30 13:00:00 16.9 7 Este 21 Nordeste 0 -- -- 41
2020-08-30 12:00:00 15.8 12 Nordeste 22 Norte 0 -- -- 49
2020-08-30 11:00:00 14.3 9 Norte 18 Norte 0 -- -- 55
2020-08-30 10:00:00 8.1 0 Calma 4 Sudoeste 0 -- -- 82
2020-08-30 09:00:00 5.5 3 Sudoeste 5 Sudoeste 0 -- -- 89
2020-08-30 08:00:00 4.7 3 Sudoeste 5 Sudoeste 0 -- -- 86
2020-08-30 07:00:00 4.7 0 Calma 4 Oeste 0 -- -- 86
2020-08-30 06:00:00 6.1 2 Sur 7 Oeste 0 -- -- 81
2020-08-30 05:00:00 6.5 2 Noroeste 7 Sur 0 -- -- 82
2020-08-30 04:00:00 7.8 3 Nordeste 10 Norte 0 -- -- 74
2020-08-30 03:00:00 8.4 6 Norte 12 Norte 0 -- -- 72
2020-08-30 02:00:00 9.2 5 Norte 13 Norte 0 -- -- 70
2020-08-30 01:00:00 10.2 8 Norte 18 Norte 0 -- -- 67
2020-08-30 00:00:00 11.2 11 Norte 19 Nordeste 0 -- -- 65
2020-08-29 23:00:00 12.2 10 Norte 27 Norte 0 -- -- 60
2020-08-29 22:00:00 13.3 14 Norte 27 Noroeste 0 -- -- 56
2020-08-29 21:00:00 15.1 14 Norte 34 Norte 0 -- -- 49
2020-08-29 20:00:00 17 23 Noroeste 45 Norte 0 -- -- 44
2020-08-29 19:00:00 18.3 27 Norte 44 Noroeste 0 -- -- 42
2020-08-29 18:00:00 19.6 28 Norte 45 Norte 0 -- -- 41
2020-08-29 17:00:00 19.9 23 Norte 45 Norte 0 -- -- 39
2020-08-29 16:00:00 19.5 20 Norte 36 Noroeste 0 -- -- 40
2020-08-29 15:00:00 19.3 16 Norte 40 Norte 0 -- -- 39
2020-08-29 14:00:00 16.8 17 Noroeste 42 Norte 0 -- -- 49
2020-08-29 13:00:00 18.3 22 Norte 41 Norte 0 -- -- 44
2020-08-29 12:00:00 16.5 20 Noroeste 37 Norte 0 -- -- 49
2020-08-29 11:00:00 15.9 23 Noroeste 38 Noroeste 0 -- -- 51
2020-08-29 10:00:00 14.5 21 Noroeste 33 Noroeste 0 -- -- 55
2020-08-29 09:00:00 11 5 Oeste 12 Noroeste 0 -- -- 74
2020-08-29 08:00:00 8.9 3 Norte 9 Sudoeste 0 -- -- 80
2020-08-29 07:00:00 8 3 Oeste 12 Noroeste 0 -- -- 83
2020-08-29 06:00:00 6.7 6 Noroeste 10 Noroeste 0 -- -- 84
2020-08-29 05:00:00 8 2 Noroeste 7 Norte 0 -- -- 77
2020-08-29 04:00:00 9.3 0 Calma 7 Nordeste 0 -- -- 69
2020-08-29 03:00:00 9.7 4 Nordeste 13 Norte 0 -- -- 68
2020-08-29 02:00:00 10.8 8 Norte 25 Noroeste 0 -- -- 65
2020-08-29 01:00:00 12.5 19 Noroeste 36 Noroeste 0 -- -- 58
2020-08-29 00:00:00 12.1 3 Norte 8 Noroeste 0 -- -- 62
2020-08-28 23:00:00 13.5 3 Noroeste 25 Noroeste 0 -- -- 50
2020-08-28 22:00:00 14.8 15 Noroeste 35 Noroeste 0 -- -- 50
2020-08-28 21:00:00 17 18 Noroeste 36 Noroeste 0 -- -- 45
2020-08-28 20:00:00 18.8 23 Noroeste 51 Noroeste 0 -- -- 39
2020-08-28 19:00:00 20 30 Noroeste 48 Norte 0 -- -- 34
2020-08-28 18:00:00 21.6 29 Norte 49 Norte 0 -- -- 37
2020-08-28 17:00:00 22.8 26 Norte 41 Norte 0 -- -- 35
2020-08-28 16:00:00 23 27 Norte 39 Norte 0 -- -- 33
2020-08-28 15:00:00 24.4 15 Noroeste 31 Norte 0 -- -- 28
2020-08-28 14:00:00 22.8 15 Norte 26 Nordeste 0 -- -- 32
2020-08-28 13:00:00 22.1 14 Norte 27 Nordeste 0 -- -- 41
2020-08-28 12:00:00 22.1 6 Sur 15 Norte 0 -- -- 40
2020-08-28 11:00:00 19.5 10 Norte 25 Noroeste 0 -- -- 49
2020-08-28 10:00:00 18.8 9 Norte 18 Noroeste 0 -- -- 54
2020-08-28 09:00:00 16.2 3 Nordeste 8 Nordeste 0 -- -- 70
2020-08-28 08:00:00 14.9 3 Norte 17 Noroeste 0 -- -- 76
2020-08-28 07:00:00 15.2 6 Noroeste 12 Noroeste 0 -- -- 77
2020-08-28 06:00:00 16.8 4 Noroeste 10 Norte 0 -- -- 75
2020-08-28 05:00:00 17.2 4 Norte 7 Norte 0 -- -- 73
2020-08-28 04:00:00 18.4 2 Nordeste 13 Norte 0 -- -- 67
2020-08-28 03:00:00 19.3 9 Noroeste 14 Noroeste 0 -- -- 63
2020-08-28 02:00:00 19.7 4 Nordeste 15 Noroeste 0 -- -- 64
2020-08-28 01:00:00 19.5 5 Norte 10 Noroeste 0 -- -- 65
2020-08-28 00:00:00 20.2 0 Calma 6 Norte 0 -- -- 58
2020-08-27 23:00:00 22.5 3 Noroeste 8 Oeste 0 -- -- 50
2020-08-27 22:00:00 23.8 3 Noroeste 14 Noroeste 0 -- -- 46
2020-08-27 21:00:00 26 7 Noroeste 29 Noroeste 0 -- -- 43
2020-08-27 20:00:00 27.8 21 Noroeste 34 Noroeste 0 -- -- 38
2020-08-27 19:00:00 30 12 Norte 29 Noroeste 0 -- -- 36
2020-08-27 18:00:00 32.5 14 Oeste 27 Oeste 0 -- -- 27
2020-08-27 17:00:00 32.5 14 Oeste 38 Sudoeste 0 -- -- 24
2020-08-27 16:00:00 31.8 13 Sudoeste 27 Oeste 0 -- -- 27
2020-08-27 15:00:00 30.5 6 Noroeste 22 Sur 0 -- -- 30
2020-08-27 14:00:00 29 9 Sur 18 Sudoeste 0 -- -- 36
2020-08-27 13:00:00 27.9 9 Sur 17 Sur 0 -- -- 37
2020-08-27 12:00:00 26.2 6 Sudeste 13 Sudeste 0 -- -- 50
2020-08-27 11:00:00 23.6 4 Noroeste 9 Noroeste 0 -- -- 64
2020-08-27 10:00:00 20.3 0 Calma 6 Sur 0 -- -- 76
2020-08-27 09:00:00 16.2 3 Noroeste 8 Noroeste 0 -- -- 90
2020-08-27 08:00:00 13.7 6 Noroeste 8 Noroeste 0 -- -- 92
2020-08-27 07:00:00 13.5 4 Noroeste 8 Noroeste 0 -- -- 90
2020-08-27 06:00:00 13.8 6 Noroeste 7 Noroeste 0 -- -- 89
2020-08-27 05:00:00 14.6 0 Calma 9 Sudeste 0 -- -- 87
2020-08-27 04:00:00 15.8 3 Noroeste 4 Noroeste 0 -- -- 83
2020-08-27 03:00:00 16.2 2 Noroeste 4 Noroeste 0 -- -- 82
2020-08-27 02:00:00 17.4 3 Noroeste 5 Noroeste 0 -- -- 75
2020-08-27 01:00:00 19.3 3 Oeste 10 Noroeste 0 -- -- 68
2020-08-27 00:00:00 20.8 8 Noroeste 10 Noroeste 0 -- -- 61
2020-08-26 23:00:00 23.5 6 Oeste 12 Norte 0 -- -- 50
2020-08-26 22:00:00 25.4 3 Norte 12 Nordeste 0 -- -- 45
2020-08-26 21:00:00 28.4 11 Nordeste 23 Sudoeste 0 -- -- 40
2020-08-26 20:00:00 31.3 16 Sudoeste 25 Sudoeste 0 -- -- 34
2020-08-26 19:00:00 32.6 12 Sudoeste 22 Oeste 0 -- -- 30
2020-08-26 18:00:00 32.6 12 Sudoeste 21 Sudoeste 0 -- -- 29
2020-08-26 17:00:00 32.4 8 Sur 25 Sudoeste 0 -- -- 25
2020-08-26 16:00:00 31.8 11 Oeste 21 Oeste 0 -- -- 27
2020-08-26 15:00:00 30.2 6 Sur 17 Sur 0 -- -- 29
2020-08-26 14:00:00 28.3 4 Nordeste 17 Oeste 0 -- -- 35
2020-08-26 13:00:00 25.9 4 Norte 9 Noroeste 0 -- -- 45
2020-08-26 12:00:00 23.9 3 Noroeste 21 Nordeste 0 -- -- 53
2020-08-26 11:00:00 21.7 3 Norte 8 Sudeste 0 -- -- 59
2020-08-26 10:00:00 18.6 2 Oeste 6 Oeste 0 -- -- 71
2020-08-26 09:00:00 14.8 4 Oeste 6 Noroeste 0 -- -- 87
2020-08-26 08:00:00 12.3 2 Oeste 5 Oeste 0 -- -- 89
2020-08-26 07:00:00 13.1 0 Calma 5 Noroeste 0 -- -- 87
2020-08-26 06:00:00 13.6 4 Noroeste 10 Noroeste 0 -- -- 86
2020-08-26 05:00:00 13.9 5 Noroeste 9 Noroeste 0 -- -- 85
2020-08-26 04:00:00 14.9 3 Oeste 8 Oeste 0 -- -- 82
2020-08-26 03:00:00 15.6 5 Oeste 9 Este 0 -- -- 79
2020-08-26 02:00:00 17.6 7 Sudoeste 10 Sudoeste 0 -- -- 68
2020-08-26 01:00:00 19.2 0 Calma 8 Oeste 0 -- -- 62
2020-08-26 00:00:00 20.7 6 Oeste 14 Noroeste 0 -- -- 57
2020-08-25 23:00:00 22.4 8 Oeste 14 Noroeste 0 -- -- 51
2020-08-25 22:00:00 24.4 8 Norte 17 Norte 0 -- -- 43
2020-08-25 21:00:00 27.8 9 Nordeste 17 Sudoeste 0 -- -- 36
2020-08-25 20:00:00 30.4 9 Sudoeste 30 Sudoeste 0 -- -- 31
2020-08-25 19:00:00 31.4 18 Sudoeste 29 Sudoeste 0 -- -- 28
2020-08-25 18:00:00 32.5 14 Sudoeste 29 Sudoeste 0 -- -- 24
2020-08-25 17:00:00 32.3 15 Sudoeste 27 Sudoeste 0 -- -- 24
2020-08-25 16:00:00 32 14 Oeste 26 Sudoeste 0 -- -- 20
2020-08-25 15:00:00 31.5 16 Sur 28 Sudoeste 0 -- -- 17
2020-08-25 14:00:00 29.3 10 Sudoeste 28 Sudoeste 0 -- -- 25
2020-08-25 13:00:00 26.8 6 Sur 18 Sur 0 -- -- 34
2020-08-25 12:00:00 24.1 6 Este 13 Este 0 -- -- 47
2020-08-25 11:00:00 20.9 3 Sur 6 Sur 0 -- -- 57
2020-08-25 10:00:00 17.3 0 Calma 4 Sudeste 0 -- -- 70
2020-08-25 09:00:00 13 0 Calma 3 Norte 0 -- -- 87
2020-08-25 08:00:00 10.5 0 Calma 3 Sudoeste 0 -- -- 90
2020-08-25 07:00:00 11.1 3 Sur 6 Noroeste 0 -- -- 89
2020-08-25 06:00:00 11.4 4 Noroeste 6 Noroeste 0 -- -- 90
2020-08-25 05:00:00 11.9 0 Calma 4 Noroeste 0 -- -- 87
2020-08-25 04:00:00 12.4 2 Noroeste 5 Noroeste 0 -- -- 86
2020-08-25 03:00:00 13.3 2 Sudoeste 6 Oeste 0 -- -- 81
2020-08-25 02:00:00 14.8 2 Oeste 6 Noroeste 0 -- -- 78
2020-08-25 01:00:00 15.3 0 Calma 6 Oeste 0 -- -- 76
2020-08-25 00:00:00 16.2 4 Noroeste 8 Noroeste 0 -- -- 75
2020-08-24 23:00:00 18.4 4 Noroeste 8 Noroeste 0 -- -- 67
2020-08-24 22:00:00 21 6 Noroeste 10 Sur 0 -- -- 58
2020-08-24 21:00:00 26.2 5 Sur 12 Sudeste 0 -- -- 40
2020-08-24 20:00:00 28.3 6 Sur 21 Sur 0 -- -- 33
2020-08-24 19:00:00 28.6 9 Sur 19 Sur 0 -- -- 33
2020-08-24 18:00:00 28.1 4 Este 15 Sudeste 0 -- -- 32
2020-08-24 17:00:00 27.3 6 Nordeste 15 Este 0 -- -- 37
2020-08-24 16:00:00 25.7 4 Nordeste 15 Noroeste 0 -- -- 41
2020-08-24 15:00:00 24.5 6 Este 17 Sudeste 0 -- -- 48
2020-08-24 14:00:00 22.5 6 Norte 15 Norte 0 -- -- 57
2020-08-24 13:00:00 20.4 8 Norte 18 Norte 0 -- -- 66
2020-08-24 12:00:00 19.4 12 Este 21 Este 0 -- -- 66
2020-08-24 11:00:00 18.3 3 Sur 11 Nordeste 0 -- -- 72
2020-08-24 10:00:00 16.3 6 Nordeste 9 Nordeste 0 -- -- 81
2020-08-24 09:00:00 13.8 0 Calma 4 Noroeste 0 -- -- 90
2020-08-24 08:00:00 11 2 Oeste 8 Noroeste 0 -- -- 93
2020-08-24 07:00:00 11.3 3 Oeste 8 Noroeste 0 -- -- 92
2020-08-24 06:00:00 11.8 4 Noroeste 8 Noroeste 0 -- -- 91
2020-08-24 05:00:00 12.4 5 Noroeste 6 Noroeste 0 -- -- 89
2020-08-24 04:00:00 14.3 2 Sudoeste 6 Sudoeste 0 -- -- 84
2020-08-24 03:00:00 15.6 0 Calma 9 Nordeste 0 -- -- 78
2020-08-24 02:00:00 16.9 3 Este 15 Nordeste 0 -- -- 72
2020-08-24 01:00:00 17.4 7 Nordeste 18 Nordeste 0 -- -- 70
2020-08-24 00:00:00 17.9 10 Noroeste 14 Noroeste 0 -- -- 64
2020-08-23 23:00:00 17.3 11 Noroeste 13 Noroeste 0 -- -- 63
2020-08-23 22:00:00 20.9 2 Oeste 7 Nordeste 0 -- -- 46
2020-08-23 21:00:00 24.3 5 Este 11 Este 0 -- -- 39
2020-08-23 20:00:00 26.6 8 Este 15 Nordeste 0 -- -- 28
2020-08-23 19:00:00 26.9 11 Este 20 Este 0 -- -- 27
2020-08-23 18:00:00 27 6 Sudeste 17 Este 0 -- -- 30
2020-08-23 17:00:00 26.5 5 Nordeste 15 Nordeste 0 -- -- 35
2020-08-23 16:00:00 25.5 5 Norte 13 Sudoeste 0 -- -- 35
2020-08-23 15:00:00 24.9 4 Norte 16 Este 0 -- -- 33
2020-08-23 14:00:00 23.7 5 Sur 13 Este 0 -- -- 44
2020-08-23 13:00:00 21.9 8 Este 14 Nordeste 0 -- -- 53
2020-08-23 12:00:00 20.3 5 Este 13 Este 0 -- -- 58
2020-08-23 11:00:00 18.5 7 Este 17 Este 0 -- -- 66
2020-08-23 10:00:00 16.5 8 Nordeste 13 Nordeste 0 -- -- 76
2020-08-23 09:00:00 13.3 4 Noroeste 8 Noroeste 0 -- -- 89
2020-08-23 08:00:00 10.9 7 Noroeste 10 Noroeste 0 -- -- 93
2020-08-23 07:00:00 10.8 4 Noroeste 9 Noroeste 0 -- -- 92
2020-08-23 06:00:00 10.8 4 Oeste 8 Noroeste 0 -- -- 91
2020-08-23 05:00:00 11.2 3 Noroeste 9 Noroeste 0 -- -- 87
2020-08-23 04:00:00 11.7 2 Noroeste 7 Noroeste 0 -- -- 82
2020-08-23 03:00:00 12.9 4 Noroeste 8 Noroeste 0 -- -- 76
2020-08-23 02:00:00 13.5 5 Norte 7 Este 0 -- -- 70
2020-08-23 01:00:00 15.1 3 Norte 6 Nordeste 0 -- -- 69
2020-08-23 00:00:00 16.8 2 Noroeste 9 Norte 0 -- -- 62
2020-08-22 23:00:00 17.5 4 Norte 11 Noroeste 0 -- -- 60
2020-08-22 22:00:00 20.3 4 Norte 9 Nordeste 0 -- -- 49
2020-08-22 21:00:00 24.2 4 Nordeste 17 Este 0 -- -- 39
2020-08-22 20:00:00 27.2 4 Oeste 18 Sudoeste 0 -- -- 27
2020-08-22 19:00:00 27.4 10 Sudoeste 19 Sur 0 -- -- 25
2020-08-22 18:00:00 26.8 6 Sur 18 Este 0 -- -- 30
2020-08-22 17:00:00 26.1 8 Este 19 Este 0 -- -- 33
2020-08-22 16:00:00 24.9 6 Nordeste 18 Este 0 -- -- 34
2020-08-22 15:00:00 24.1 8 Oeste 15 Este 0 -- -- 35
2020-08-22 14:00:00 22.2 6 Nordeste 13 Este 0 -- -- 36
2020-08-22 13:00:00 21 6 Sur 12 Este 0 -- -- 44
2020-08-22 12:00:00 19.2 6 Este 13 Sudeste 0 -- -- 57
2020-08-22 11:00:00 17.2 2 Nordeste 6 Nordeste 0 -- -- 68
2020-08-22 10:00:00 14.2 0 Calma 5 Sudoeste 0 -- -- 82
2020-08-22 09:00:00 10.7 2 Oeste 4 Sudoeste 0 -- -- 93
2020-08-22 08:00:00 8.4 3 Oeste 5 Noroeste 0 -- -- 94
2020-08-22 07:00:00 8.2 6 Noroeste 8 Noroeste 0 -- -- 94
2020-08-22 06:00:00 8.8 2 Oeste 7 Noroeste 0 -- -- 94
2020-08-22 05:00:00 9.5 0 Calma 5 Noroeste 0 -- -- 92
2020-08-22 04:00:00 10.5 5 Oeste 8 Oeste 0 -- -- 92
2020-08-22 03:00:00 11.3 3 Oeste 5 Sudoeste 0 -- -- 91
2020-08-22 02:00:00 12.3 2 Nordeste 5 Oeste 0 -- -- 87
2020-08-22 01:00:00 13.6 3 Noroeste 6 Oeste 0 -- -- 85
2020-08-22 00:00:00 16 4 Oeste 13 Oeste 0 -- -- 74
2020-08-21 23:00:00 17.6 8 Oeste 20 Oeste 0 -- -- 66
2020-08-21 22:00:00 19.5 10 Oeste 25 Oeste 0 -- -- 58
2020-08-21 21:00:00 21.6 13 Oeste 33 Sudoeste 0 -- -- 50
2020-08-21 20:00:00 23.2 17 Sudoeste 36 Sudoeste 0 -- -- 44
2020-08-21 19:00:00 24.3 20 Sudoeste 39 Sudoeste 0 -- -- 40
2020-08-21 18:00:00 24.1 21 Sudoeste 37 Sudoeste 0 -- -- 41
2020-08-21 17:00:00 24.9 22 Sudoeste 39 Sudoeste 0 -- -- 37
2020-08-21 16:00:00 24.6 20 Sudoeste 36 Sudoeste 0 -- -- 30
2020-08-21 15:00:00 24.1 17 Sudoeste 32 Sudoeste 0 -- -- 28
2020-08-21 14:00:00 22.6 17 Sudoeste 26 Sudoeste 0 -- -- 37
2020-08-21 13:00:00 20.4 9 Sur 18 Sudoeste 0 -- -- 54
2020-08-21 12:00:00 18.2 5 Oeste 16 Sudoeste 0.2 -- -- 70
2020-08-21 11:00:00 16 9 Sudoeste 17 Oeste 0 -- -- 81
2020-08-21 10:00:00 15.4 8 Sudoeste 13 Sudoeste 0 -- -- 84
2020-08-21 09:00:00 14.2 4 Oeste 8 Sudoeste 0 -- -- 87
2020-08-21 08:00:00 13.8 3 Sur 5 Sudoeste 0 -- -- 91
2020-08-21 07:00:00 13.8 0 Calma 12 Oeste 0 -- -- 89
2020-08-21 06:00:00 14.1 7 Sudoeste 15 Oeste 0 -- -- 87
2020-08-21 05:00:00 14.6 8 Sudoeste 18 Oeste 0 -- -- 86
2020-08-21 04:00:00 15 11 Oeste 20 Oeste 0 -- -- 88
2020-08-21 03:00:00 15.6 6 Sudoeste 14 Oeste 0 -- -- 93
2020-08-21 02:00:00 15.9 5 Sudoeste 12 Sudoeste 0 -- -- 92
2020-08-21 01:00:00 16 7 Sur 19 Sudoeste 0 -- -- 93
2020-08-21 00:00:00 16.3 10 Sudoeste 17 Sudoeste 0 -- -- 91